Piedmont Triad International Airport
KGSO : rendu visible

Aérodrome :











RETROUVEZ-NOUS SUR...

 
LOGIN :

S'inscrire | Disclaimer

   EN    FR    IT 

 









Légende :    VFR   VFR Marginal   IFR   IFR Intensif   IFR Très Intensif
Visi : 
Plafond : 
>= 8 km
>= 3000ft
5 à 8 km
1000 à 3000 ft
1500m à 5 km
500 à 1000 ft
800 à 1500m
200 à 500 ft
< 800m
< 200 ft
Symboles :   Orages  Brouillard  Fortes neiges  Fortes précipitations  Vent > 20 kt







- Altitude de l'aérodrome : 925 ft
- Code IATA : GSO


KGSO - Piedmont Triad International

DERNIER METAR :
  • 220854Z 24008KT 10SM BKN250 24/21 A2996 RMK AO2 SLP131 T02440211 56008

METARs EXPIRÉS :
  • 220754Z 22007KT 10SM BKN250 25/22 A2996 RMK AO2 SLP131 T02500217
  • 220654Z 24006KT 10SM BKN250 26/21 A2996 RMK AO2 SLP131 T02560211

TAF KGSO
Valide du 22 à 06h jusqu'au 23 à 06h UTC


220524Z 2206/2306 22008KT P6SM FEW050 BKN250
FM221500 24012G18KT P6SM SCT250
FM221800 22013G23KT P6SM SCT050 BKN250
PROB30 2220/2224 VRB15G30KT 2SM TSRA BKN030CB
FM230000 23007KT P6SM VCSH BKN080
PROB30 2303/2306 4SM -TSRA BKN050CB
FIR KZTL / Amérique du Nord



MET'MAP, la Météo Aéronautique d'un coup d'oeil ! - Copyright ORBIFLY Décembre 2007 - Disclaimer

ORBIFLY MET'MAP TEAM :

Programmation & Développement : Alexandra Zaïnal
Conception & Développement : Baudouin d'Aumeries
Co-Programmation & Développement : Marc-Olivier Méhu
Soutien technique & logistique : Manuel Goepfert

Contact : metmap@orbifly.com




SOURCES & CREDITS :

   NOAA       Earth
Advisory